Weather reports worldwide

Advertisment
Großer Arber, Germany (10791): temperature & dewpoint: 23.10.2020 11:00:00 - 29.10.2020 11:00:00 (CET)Großer Arber, Germany (10791): wind speed & gusts: 23.10.2020 11:00:00 - 29.10.2020 11:00:00 (CET)Großer Arber, Germany (10791): wind direction: 23.10.2020 11:00:00 - 29.10.2020 11:00:00 (CET)Großer Arber, Germany (10791): visibility: 23.10.2020 11:00:00 - 29.10.2020 11:00:00 (CET)Großer Arber, Germany (10791): sunshine duration: 23.10.2020 11:00:00 - 29.10.2020 11:00:00 (CET)Großer Arber, Germany (10791): precipitation: 23.10.2020 11:00:00 - 29.10.2020 11:00:00 (CET)
Date & Time tt [°C] td [°C] ff [km/h] ff [kn] fx [km/h] fx [kn] dd vv [km] sd [min] rr [mm]
29.10.2020 11:00:00 1,2 1,2 50 27 72 39 W 0,1 0 1,2
29.10.2020 10:00:00 2,6 2,6 46 25 70 38 WSW 0,1 0 0,4
29.10.2020 09:00:00 2,8 2,8 42 23 79 43 WSW 0,1 0 0,7
29.10.2020 08:00:00 2,6 2,6 49 26 91 49 W 0,1 0 2,1
29.10.2020 07:00:00 3,2 3,2 46 25 73 40 WSW 0,1 0 3,1
29.10.2020 06:00:00 3,3 3,3 38 21 58 32 SW 0,1 0 3,0
29.10.2020 05:00:00 3,1 3,1 34 18 51 28 SW - 0 0,1
29.10.2020 04:00:00 3,1 3,1 32 18 51 28 SW - 0 0,2
29.10.2020 03:00:00 2,8 2,8 26 14 53 29 SSW - 0 0,4
29.10.2020 02:00:00 2,8 2,8 34 18 56 31 SW - 0 0,1
29.10.2020 01:00:00 3,3 3,3 37 20 50 27 SW - 0 0,0
29.10.2020 00:00:00 3,2 3,2 30 16 48 26 WSW 0,1 0 0,0
28.10.2020 23:00:00 2,6 2,6 39 21 56 30 WSW 0,2 0 0,0
28.10.2020 22:00:00 2,8 2,8 41 22 61 33 WSW 0,1 0 0,0
28.10.2020 21:00:00 3,4 3,4 39 21 55 30 WSW - 0 0,0
28.10.2020 20:00:00 3,9 3,9 34 18 49 26 SW - 0 0,0
28.10.2020 19:00:00 3,9 3,9 41 22 60 32 SW - 0 0,0
28.10.2020 18:00:00 3,8 3,8 31 17 44 24 SW - 0 0,0
28.10.2020 17:00:00 3,3 3,3 29 15 44 24 SW - 0 0,0
28.10.2020 16:00:00 2,8 2,8 31 17 41 22 SW - 0 0,4
28.10.2020 15:00:00 2,3 2,3 28 15 38 20 SW - 0 0,3
28.10.2020 14:00:00 2,0 2,0 31 17 41 22 SW 0,1 0 0,1
28.10.2020 13:00:00 2,2 2,2 35 19 47 25 SW - 0 0,3
28.10.2020 12:00:00 2,2 2,2 37 20 55 30 SW - 0 0,0
28.10.2020 11:00:00 1,2 1,2 41 22 53 29 SW 0,1 0 0,0
28.10.2020 10:00:00 1,5 1,5 40 21 53 29 SSW 0,1 0 0,0
28.10.2020 09:00:00 0,7 0,7 34 19 45 24 SSW 0,1 0 0,0
28.10.2020 08:00:00 0,3 -1,9 40 22 58 31 SSW 75 9 0,0
28.10.2020 07:00:00 0,2 -2,3 46 25 56 30 SSW 75 0 0,0
28.10.2020 06:00:00 0,2 -2,1 32 18 50 27 SSW 73 0 0,0
28.10.2020 05:00:00 0,6 -2,5 29 16 47 25 SSW 75 0 0,0
28.10.2020 04:00:00 0,0 -0,9 33 18 46 25 SSW 70 0 0,0
28.10.2020 03:00:00 0,0 -0,4 29 16 44 24 SSW 66 0 0,0
28.10.2020 02:00:00 -0,1 -0,1 27 14 44 24 SSW 8 0 0,0
28.10.2020 01:00:00 0,1 0,1 27 14 42 23 S 0,3 0 0,0
28.10.2020 00:00:00 0,1 0,1 25 13 44 24 S 0,1 0 0,0
27.10.2020 23:00:00 0,1 0,1 27 15 44 24 S 0,1 0 0,0
27.10.2020 22:00:00 0,1 0,1 27 15 39 21 S 0,1 0 0,0
27.10.2020 21:00:00 0,1 0,1 27 15 41 22 S 0,1 0 0,0
27.10.2020 20:00:00 0,1 0,1 23 12 34 19 S - 0 0,0
27.10.2020 19:00:00 -0,2 -0,2 20 11 26 14 S 0,1 0 0,0
27.10.2020 18:00:00 0,0 0,0 21 11 36 20 SSW 0,1 0 0,0
27.10.2020 17:00:00 0,1 0,1 17 9 30 16 SSW 0,1 0 0,0
27.10.2020 16:00:00 0,1 0,1 19 10 34 18 S 0,1 0 0,0
27.10.2020 15:00:00 0,1 0,1 12 7 28 15 SSW 0,1 0 0,0
27.10.2020 14:00:00 0,1 0,1 16 9 28 15 S - 0 0,0
27.10.2020 13:00:00 0,1 0,1 17 9 27 14 S - 0 0,0
27.10.2020 12:00:00 -0,1 -0,1 18 10 27 15 SSW - 0 0,0
27.10.2020 11:00:00 -0,3 -0,3 13 7 27 14 SSW 0,1 0 0,1
27.10.2020 10:00:00 -0,5 -0,5 18 10 26 14 SSW 0,1 0 0,1
27.10.2020 09:00:00 -0,5 -0,5 11 6 23 12 SSW 0,1 0 0,0
27.10.2020 08:00:00 -0,6 -0,6 11 6 24 13 WSW 0,1 0 0,0
27.10.2020 07:00:00 -0,7 -0,7 11 6 26 14 WSW 0,2 0 0,1
27.10.2020 06:00:00 -0,5 -0,5 16 8 21 12 W 0,2 0 0,0
27.10.2020 05:00:00 -0,7 -0,7 17 9 23 12 WSW 0,2 0 0,4
27.10.2020 04:00:00 -0,7 -0,7 16 8 26 14 WSW 0,1 0 0,4
27.10.2020 03:00:00 -0,2 -0,2 19 10 34 18 WSW 0,1 0 0,2
27.10.2020 02:00:00 0,1 0,1 26 14 35 19 W - 0 0,0
27.10.2020 01:00:00 0,1 0,1 19 10 38 21 WSW 0,1 0 0,1
27.10.2020 00:00:00 0,3 0,3 21 11 38 21 W 0,1 0 0,2
26.10.2020 23:00:00 0,7 0,7 22 12 40 22 W 0,1 0 0,3
26.10.2020 22:00:00 0,6 0,6 25 14 36 19 WNW 0,1 0 0,5
26.10.2020 21:00:00 1,1 1,1 21 11 36 20 NW 0,1 0 0,4
26.10.2020 20:00:00 1,2 1,2 25 14 41 22 WNW 0,1 0 0,3
26.10.2020 19:00:00 1,8 1,8 21 12 39 21 NW 0,1 0 0,0
26.10.2020 18:00:00 1,6 1,6 27 15 40 21 WNW 0,1 0 0,2
26.10.2020 17:00:00 2,8 2,8 24 13 37 20 W 0,1 0 0,2
26.10.2020 16:00:00 3,1 3,1 21 11 40 22 W 0,1 0 0,1
26.10.2020 15:00:00 3,4 3,4 25 13 41 22 W 0,1 0 0,0
26.10.2020 14:00:00 3,4 3,4 29 16 40 21 WSW 0,1 9 0,0
26.10.2020 13:00:00 8,6 3,9 8 5 22 12 SSW 56 59 0,0
26.10.2020 12:00:00 8,2 4,4 11 6 26 14 S 68 60 0,0
26.10.2020 11:00:00 9,9 3,0 17 9 27 15 S 75 60 0,0
26.10.2020 10:00:00 9,3 3,3 17 9 30 16 S 75 60 0,0
26.10.2020 09:00:00 9,3 2,5 21 11 27 15 S 75 36 0,0
26.10.2020 08:00:00 8,1 3,0 20 11 24 13 SE 75 38 0,0
26.10.2020 07:00:00 7,1 2,8 20 11 28 15 S 75 0 0,0
26.10.2020 06:00:00 7,1 1,5 25 13 31 17 S 75 0 0,0
26.10.2020 05:00:00 7,7 -3,0 23 12 29 16 SSE 75 0 0,0
26.10.2020 04:00:00 8,2 -3,4 21 12 29 16 ESE 75 0 0,0
26.10.2020 03:00:00 8,2 -2,3 24 13 29 16 ESE 75 0 0,0
26.10.2020 02:00:00 8,1 -2,1 20 11 24 13 ESE 75 0 0,0
26.10.2020 01:00:00 8,4 -2,1 15 8 22 12 ESE 75 0 0,0
26.10.2020 00:00:00 8,5 -2,3 8 5 13 7 SE 75 0 0,0
25.10.2020 23:00:00 9,1 -2,7 8 5 14 7 WSW 75 0 0,0
25.10.2020 22:00:00 8,8 -2,1 7 4 15 8 SW 75 0 0,0
25.10.2020 21:00:00 8,7 -2,1 6 4 21 11 NW 75 0 0,0
25.10.2020 20:00:00 8,2 -1,7 16 9 23 12 W 75 0 0,0
25.10.2020 19:00:00 8,1 -2,3 18 10 24 13 WSW 75 0 0,0
25.10.2020 18:00:00 7,5 -3,1 14 7 23 13 WSW 75 0 0,0
25.10.2020 17:00:00 7,5 0,7 18 10 27 15 SSW 75 49 0,0
25.10.2020 16:00:00 8,5 3,2 22 12 32 17 S 75 60 0,0
25.10.2020 15:00:00 8,7 3,3 26 14 39 21 S 75 60 0,0
25.10.2020 14:00:00 9,3 3,9 23 12 31 17 S 75 60 0,0
25.10.2020 13:00:00 9,5 5,1 21 12 30 16 SSE 72 60 0,0
25.10.2020 12:00:00 9,0 5,1 21 12 36 19 S 64 60 0,0
25.10.2020 11:00:00 8,2 4,4 28 15 39 21 S 75 60 0,0
25.10.2020 10:00:00 7,4 3,5 29 15 37 20 SSE 75 60 0,0
25.10.2020 09:00:00 6,1 3,9 29 16 39 21 S 75 60 0,0
25.10.2020 08:00:00 4,9 2,0 31 17 37 20 S 75 31 0,0
25.10.2020 07:00:00 4,7 1,9 31 17 38 20 S 75 0 0,0
25.10.2020 06:00:00 4,2 2,7 29 16 36 20 S 57 0 0,0
25.10.2020 05:00:00 3,8 3,1 32 18 41 22 S 17 0 0,0
25.10.2020 04:00:00 3,7 3,6 34 19 42 23 S 0,7 0 0,0
25.10.2020 03:00:00 4,0 4,0 32 17 37 20 S 0,1 0 0,0
25.10.2020 02:00:00 4,3 4,3 22 12 31 17 S - 0 0,0
25.10.2020 01:00:00 - - - - - - - - - -
25.10.2020 00:00:00 4,9 4,9 22 12 40 22 SSW - 0 0,0
24.10.2020 23:00:00 5,0 5,0 20 11 33 18 SSW - 0 0,0
24.10.2020 22:00:00 5,0 5,0 21 12 35 19 SSW - 0 0,0
24.10.2020 21:00:00 5,1 5,1 19 10 32 18 SSW - 0 0,0
24.10.2020 20:00:00 5,3 5,3 17 9 33 18 SSW - 0 0,0
24.10.2020 19:00:00 5,3 5,3 21 11 33 18 SW - 0 0,0
24.10.2020 18:00:00 5,3 5,3 18 10 34 18 SW - 0 0,0
24.10.2020 17:00:00 5,4 5,4 20 11 33 18 WSW 0,1 0 0,0
24.10.2020 16:00:00 5,6 5,6 23 12 35 19 WSW 0,3 1 0,0
24.10.2020 15:00:00 6,0 6,0 20 11 37 20 W 0,1 17 0,0
24.10.2020 14:00:00 6,4 5,6 23 12 35 19 W 8 15 0,0
24.10.2020 13:00:00 6,1 5,6 18 10 32 17 W 10 29 0,0
24.10.2020 12:00:00 6,7 6,6 16 9 29 16 W 0,1 22 0,0
24.10.2020 11:00:00 5,9 5,9 20 11 31 17 W 0,1 1 0,0
24.10.2020 10:00:00 5,9 5,9 18 10 29 16 W 0,7 4 0,0
24.10.2020 09:00:00 6,0 6,0 18 10 29 15 WNW 0,1 0 0,0
24.10.2020 08:00:00 6,3 6,3 19 11 34 18 WNW 0,1 0 0,1
24.10.2020 07:00:00 6,4 6,4 24 13 38 20 W 0,1 0 0,0
24.10.2020 06:00:00 6,2 6,2 21 11 37 20 WNW 0,1 0 0,1
24.10.2020 05:00:00 6,7 6,7 20 11 39 21 WNW - 0 0,5
24.10.2020 04:00:00 6,7 6,7 27 15 42 23 WNW 0,1 0 1,3
24.10.2020 03:00:00 6,8 6,8 27 15 45 24 W 0,1 0 1,6
24.10.2020 02:00:00 7,2 7,2 31 17 49 27 W - 0 0,2
24.10.2020 01:00:00 7,2 7,2 31 17 47 26 W 0,1 0 0,3
24.10.2020 00:00:00 7,6 7,6 29 16 54 29 W - 0 0,6
23.10.2020 23:00:00 7,9 7,9 41 22 58 31 SW - 0 2,1
23.10.2020 22:00:00 7,9 7,9 31 17 55 30 SW - 0 0,3
23.10.2020 21:00:00 7,8 7,8 24 13 41 22 SW - 0 0,7
23.10.2020 20:00:00 7,8 7,8 25 13 38 20 SW - 0 0,1
23.10.2020 19:00:00 7,7 7,7 26 14 39 21 SSW 0,7 0 0,0
23.10.2020 18:00:00 7,7 7,7 22 12 33 18 SW 0,1 0 0,1
23.10.2020 17:00:00 7,6 7,6 27 15 41 22 WSW 0,1 0 0,1
23.10.2020 16:00:00 7,9 7,9 19 11 35 19 SW 0,1 0 0,0
23.10.2020 15:00:00 7,9 7,9 18 10 35 19 SW 0,1 0 0,0
23.10.2020 14:00:00 8,0 8,0 19 10 28 15 SW - 0 0,0
23.10.2020 13:00:00 8,0 8,0 18 10 29 16 SW - 0 0,0
23.10.2020 12:00:00 8,1 7,9 21 11 37 20 SW 26 4 0,0
23.10.2020 11:00:00 7,7 7,7 23 13 39 21 WSW 0,1 0 0,0

tt = temperature
td = dewpoint
ff = wind speed
fx = gusts
dd = wind direction
vv = visibility
sd = sunshine duration
rr = precipitation

Next stations